Time;durP1;ratioP1;P1;durP2;ratioP2;P2;SDS_P1;SDS_P2;PMS_P1;PMS_P2;Temp;Humidity;BMP_temperature;BMP_pressure;BME280_temperature;BME280_humidity;BME280_pressure;Samples;Min_cycle;Max_cycle;Signal;HPM_P1;HPM_P2
2023/07/17 00:01:49;;;;;;;0.20;0.20;;;;;;;16.16;85.85;99683.69;4981586;28;20056;-74
2023/07/17 00:04:15;;;;;;;0.20;0.20;;;;;;;16.21;86.08;99684.69;4988955;28;20050;-74
2023/07/17 00:06:41;;;;;;;0.20;0.20;;;;;;;16.15;85.69;99682.03;4984034;28;20046;-74
2023/07/17 00:09:08;;;;;;;0.20;0.20;;;;;;;16.16;85.89;99685.63;4975329;28;20051;-73
2023/07/17 00:11:36;;;;;;;0.20;0.20;;;;;;;16.12;86.23;99685.44;4974463;28;20093;-73
2023/07/17 00:14:02;;;;;;;0.20;0.20;;;;;;;16.11;86.81;99680.25;4972648;28;20503;-73
2023/07/17 00:16:28;;;;;;;0.20;0.20;;;;;;;16.14;86.43;99682.38;4975921;28;20624;-74
2023/07/17 00:18:55;;;;;;;0.30;0.30;;;;;;;16.13;86.79;99691.78;4979507;28;20067;-73
2023/07/17 00:21:21;;;;;;;0.20;0.20;;;;;;;16.15;87.01;99693.06;4979522;28;20046;-73
2023/07/17 00:23:47;;;;;;;0.20;0.20;;;;;;;16.15;86.93;99692.28;4974489;28;20049;-73
2023/07/17 00:26:14;;;;;;;0.20;0.20;;;;;;;16.11;87.02;99692.06;4970797;28;20162;-74
2023/07/17 00:28:41;;;;;;;0.20;0.20;;;;;;;16.08;87.32;99695.47;4981650;28;20297;-74
2023/07/17 00:31:08;;;;;;;0.20;0.20;;;;;;;16.10;87.91;99697.94;4973334;28;20113;-74
2023/07/17 00:33:35;;;;;;;0.20;0.20;;;;;;;16.06;88.16;99689.47;4973372;28;20081;-74
2023/07/17 00:36:02;;;;;;;0.20;0.20;;;;;;;16.05;88.11;99695.28;4979742;28;20616;-74
2023/07/17 00:38:28;;;;;;;0.20;0.20;;;;;;;16.02;88.42;99688.47;4944213;28;20057;-75
2023/07/17 00:40:55;;;;;;;0.20;0.20;;;;;;;16.02;88.51;99696.75;4986860;28;20082;-74
2023/07/17 00:43:21;;;;;;;0.20;0.20;;;;;;;15.95;88.73;99691.66;4978380;28;20157;-75
2023/07/17 00:45:49;;;;;;;0.20;0.20;;;;;;;15.96;88.99;99701.56;4979776;28;20051;-74
2023/07/17 00:48:15;;;;;;;0.20;0.20;;;;;;;15.94;88.91;99703.00;4983489;28;20047;-74
2023/07/17 00:50:41;;;;;;;0.20;0.20;;;;;;;15.93;89.43;99701.38;4973711;28;20057;-74
2023/07/17 00:53:08;;;;;;;0.20;0.20;;;;;;;15.91;89.47;99695.34;4991483;28;20582;-74
2023/07/17 00:55:37;;;;;;;0.20;0.20;;;;;;;15.91;89.60;99696.16;4979623;28;20082;-73
2023/07/17 00:58:04;;;;;;;0.20;0.20;;;;;;;15.91;89.32;99698.91;4967517;28;20070;-73
2023/07/17 01:00:31;;;;;;;0.20;0.20;;;;;;;15.91;89.44;99692.59;4972399;28;20050;-73
2023/07/17 01:02:59;;;;;;;0.20;0.20;;;;;;;15.92;89.26;99705.25;4982377;28;20061;-74
2023/07/17 01:05:27;;;;;;;0.20;0.20;;;;;;;15.91;89.54;99695.34;4983743;28;20073;-73
2023/07/17 01:07:55;;;;;;;0.20;0.20;;;;;;;15.88;89.79;99697.59;4978642;28;20537;-74
2023/07/17 01:10:22;;;;;;;0.20;0.20;;;;;;;15.88;90.13;99694.00;4973863;28;20046;-74
2023/07/17 01:12:49;;;;;;;0.20;0.20;;;;;;;15.86;90.00;99694.34;4978554;28;20834;-74
2023/07/17 01:15:15;;;;;;;0.20;0.20;;;;;;;15.85;90.18;99695.47;4981390;28;20356;-73
2023/07/17 01:17:41;;;;;;;0.30;0.30;;;;;;;15.83;90.25;99691.38;4982439;28;20042;-73
2023/07/17 01:20:10;;;;;;;0.20;0.20;;;;;;;15.84;90.39;99701.28;4969180;28;20556;-73
2023/07/17 01:22:39;;;;;;;0.20;0.20;;;;;;;15.84;90.58;99704.03;4978536;28;20054;-73
2023/07/17 01:25:08;;;;;;;0.20;0.20;;;;;;;15.78;90.48;99688.75;4983379;28;20506;-73
2023/07/17 01:27:34;;;;;;;0.20;0.20;;;;;;;15.84;90.62;99704.84;4978798;28;20046;-73
2023/07/17 01:30:00;;;;;;;0.20;0.20;;;;;;;15.83;91.00;99696.88;4969036;28;20197;-73
2023/07/17 01:32:26;;;;;;;0.30;0.30;;;;;;;15.82;90.75;99701.56;4984000;28;20062;-74
2023/07/17 01:34:53;;;;;;;0.25;0.25;;;;;;;15.83;90.42;99703.19;4986193;28;20054;-73
2023/07/17 01:37:19;;;;;;;0.20;0.20;;;;;;;15.84;90.28;99702.09;4988147;28;20054;-73
2023/07/17 01:39:45;;;;;;;0.25;0.25;;;;;;;15.83;90.61;99703.19;4981093;28;20061;-74
2023/07/17 01:42:13;;;;;;;0.20;0.20;;;;;;;15.88;90.33;99705.84;4992216;28;20042;-72
2023/07/17 01:44:39;;;;;;;0.20;0.20;;;;;;;15.92;90.12;99706.09;4995287;28;20056;-72
2023/07/17 01:47:06;;;;;;;0.20;0.20;;;;;;;15.94;90.12;99705.75;4980205;28;20065;-74
2023/07/17 01:49:34;;;;;;;0.20;0.20;;;;;;;15.93;90.40;99710.47;4967391;28;20057;-73
2023/07/17 01:52:01;;;;;;;0.20;0.20;;;;;;;15.97;90.44;99708.69;4989252;28;20096;-73
2023/07/17 01:54:27;;;;;;;0.20;0.20;;;;;;;15.99;90.44;99711.13;4966983;28;20046;-73
2023/07/17 01:56:53;;;;;;;0.30;0.30;;;;;;;15.96;89.86;99700.72;4979365;28;20080;-74
2023/07/17 01:59:21;;;;;;;0.20;0.20;;;;;;;16.02;89.77;99707.78;4981059;28;20046;-72
2023/07/17 02:01:47;;;;;;;0.30;0.30;;;;;;;16.04;89.72;99708.25;4991056;28;20046;-73
2023/07/17 02:04:13;;;;;;;0.20;0.20;;;;;;;16.09;89.22;99718.34;4978270;28;20057;-74
2023/07/17 02:06:40;;;;;;;0.20;0.20;;;;;;;16.12;89.26;99713.00;4992658;28;20042;-73
2023/07/17 02:09:06;;;;;;;0.20;0.20;;;;;;;16.15;89.32;99712.38;4979399;28;20314;-73
2023/07/17 02:11:33;;;;;;;0.30;0.30;;;;;;;16.18;89.60;99713.69;4987700;28;20053;-73
2023/07/17 02:14:00;;;;;;;;;;;;;;;16.21;90.21;99720.53;4966855;28;20904;-73
2023/07/17 02:16:28;;;;;;;0.20;0.20;;;;;;;16.24;89.20;99717.97;4982796;28;20024;-72
2023/07/17 02:18:54;;;;;;;0.20;0.20;;;;;;;16.26;89.38;99704.69;4978343;28;20161;-73
2023/07/17 02:21:20;;;;;;;0.28;0.28;;;;;;;16.29;89.27;99706.78;4954018;28;20511;-72
2023/07/17 02:23:46;;;;;;;0.20;0.20;;;;;;;16.39;88.64;99713.16;4980168;28;20073;-73
2023/07/17 02:26:13;;;;;;;0.30;0.30;;;;;;;16.45;88.96;99715.47;4993976;28;20066;-73
2023/07/17 02:28:39;;;;;;;0.20;0.20;;;;;;;16.45;88.37;99718.22;4956762;28;20058;-72
2023/07/17 02:31:05;;;;;;;0.30;0.30;;;;;;;16.53;87.17;99716.66;4961919;28;20047;-72
2023/07/17 02:33:34;;;;;;;0.20;0.20;;;;;;;16.50;86.75;99709.00;4977212;28;20051;-73
2023/07/17 02:36:03;;;;;;;0.30;0.30;;;;;;;16.61;86.60;99717.81;4996068;28;20050;-72
2023/07/17 02:38:30;;;;;;;0.30;0.30;;;;;;;16.63;87.00;99712.00;4963156;28;20081;-73
2023/07/17 02:40:56;;;;;;;0.20;0.20;;;;;;;16.62;86.96;99721.41;4993173;28;20062;-72
2023/07/17 02:43:22;;;;;;;0.20;0.20;;;;;;;16.66;86.46;99717.69;4990559;28;20425;-73
2023/07/17 02:45:48;;;;;;;0.20;0.20;;;;;;;16.71;86.28;99727.78;4973584;28;20049;-71
2023/07/17 02:48:14;;;;;;;0.25;0.25;;;;;;;16.74;86.36;99721.63;4961946;28;20086;-73
2023/07/17 02:50:42;;;;;;;0.38;0.38;;;;;;;16.75;85.94;99723.25;4978102;28;20616;-73
2023/07/17 02:53:08;;;;;;;0.30;0.30;;;;;;;16.80;86.03;99734.16;4980716;28;20066;-73
2023/07/17 02:55:35;;;;;;;0.30;0.30;;;;;;;16.84;85.53;99731.56;4982853;28;20526;-73
2023/07/17 02:58:01;;;;;;;0.30;0.30;;;;;;;16.86;85.67;99730.13;4963326;28;20077;-72
2023/07/17 03:00:27;;;;;;;0.28;0.28;;;;;;;16.88;85.55;99729.78;4973801;28;20101;-73
2023/07/17 03:02:54;;;;;;;0.20;0.20;;;;;;;16.86;85.16;99730.13;4976610;28;20541;-73
2023/07/17 03:05:20;;;;;;;0.20;0.20;;;;;;;16.80;85.23;99722.31;4985828;28;20055;-73
2023/07/17 03:07:48;;;;;;;0.20;0.20;;;;;;;16.73;85.87;99729.09;4991214;28;20046;-72
2023/07/17 03:10:15;;;;;;;0.20;0.20;;;;;;;16.64;85.75;99721.91;4974065;28;20056;-72
2023/07/17 03:12:41;;;;;;;0.30;0.30;;;;;;;16.70;85.73;99735.25;4964765;28;20038;-73
2023/07/17 03:15:10;;;;;;;0.30;0.30;;;;;;;16.64;85.81;99735.69;4994774;28;20042;-73
2023/07/17 03:17:36;;;;;;;0.20;0.20;;;;;;;16.54;85.97;99734.03;4948530;28;20058;-72
2023/07/17 03:20:08;;;;;;;0.20;0.20;;;;;;;16.52;86.28;99728.81;4992817;28;20105;-72
2023/07/17 03:22:36;;;;;;;0.30;0.30;;;;;;;16.52;86.67;99742.63;4991337;28;20047;-73
2023/07/17 03:25:05;;;;;;;0.20;0.20;;;;;;;16.49;86.50;99726.69;4977824;28;20054;-73
2023/07/17 03:27:36;;;;;;;0.30;0.30;;;;;;;16.56;86.23;99729.00;4962414;28;20149;-74
2023/07/17 03:30:04;;;;;;;0.30;0.30;;;;;;;16.68;86.04;99742.22;4981367;28;20057;-73
2023/07/17 03:32:36;;;;;;;0.30;0.30;;;;;;;16.77;85.44;99729.28;4989556;28;20084;-73
2023/07/17 03:35:04;;;;;;;0.20;0.20;;;;;;;16.91;85.20;99734.69;4983652;28;20601;-73
2023/07/17 03:37:32;;;;;;;0.30;0.30;;;;;;;17.01;84.23;99725.31;4979006;28;20137;-73
2023/07/17 03:39:58;;;;;;;0.20;0.20;;;;;;;17.12;84.09;99725.84;4971257;28;20058;-73
2023/07/17 03:42:27;;;;;;;0.28;0.28;;;;;;;17.17;83.98;99731.22;4981026;28;20141;-73
2023/07/17 03:44:53;;;;;;;0.30;0.30;;;;;;;17.31;83.63;99733.84;4951294;28;20054;-74
2023/07/17 03:47:20;;;;;;;;;;;;;;;17.41;83.93;99736.31;4957757;28;20043;-74
2023/07/17 03:49:47;;;;;;;0.27;0.27;;;;;;;17.48;82.93;99735.00;4991425;28;19936;-72
2023/07/17 03:52:13;;;;;;;0.30;0.30;;;;;;;17.55;82.28;99735.34;4983361;28;20066;-73
2023/07/17 03:54:39;;;;;;;0.28;0.28;;;;;;;17.64;82.19;99741.72;4964224;28;20057;-73
2023/07/17 03:57:06;;;;;;;0.30;0.30;;;;;;;17.64;81.65;99733.44;4959712;28;20074;-73
2023/07/17 03:59:47;;;;;;;0.30;0.30;;;;;;;17.67;80.70;99735.53;4965081;28;20526;-74
2023/07/17 04:02:14;;;;;;;0.30;0.30;;;;;;;17.66;80.44;99739.44;4978015;28;20061;-73
2023/07/17 04:04:40;;;;;;;0.30;0.30;;;;;;;17.58;80.63;99737.47;4975194;28;20043;-73
2023/07/17 04:07:06;;;;;;;0.30;0.30;;;;;;;17.60;80.31;99737.94;4981847;28;20050;-74
2023/07/17 04:09:32;;;;;;;0.30;0.30;;;;;;;17.67;80.25;99737.47;4989083;28;20141;-73
2023/07/17 04:11:59;;;;;;;0.30;0.30;;;;;;;17.75;79.41;99733.09;4972980;28;20058;-74
2023/07/17 04:14:25;;;;;;;0.47;0.30;;;;;;;17.71;79.72;99735.69;4974859;28;20058;-74
2023/07/17 04:16:53;;;;;;;0.30;0.30;;;;;;;17.59;79.96;99733.56;4978542;28;20053;-74
2023/07/17 04:19:19;;;;;;;0.30;0.30;;;;;;;17.54;80.45;99731.75;4975856;28;20047;-74
2023/07/17 04:21:45;;;;;;;0.30;0.30;;;;;;;17.44;80.98;99721.84;4982331;28;20046;-73
2023/07/17 04:24:12;;;;;;;0.20;0.20;;;;;;;17.56;81.59;99725.94;4969820;28;20355;-74
2023/07/17 04:26:44;;;;;;;0.30;0.30;;;;;;;17.77;81.12;99715.03;4950838;28;20050;-74
2023/07/17 04:29:10;;;;;;;0.20;0.20;;;;;;;17.95;80.34;99718.63;4979064;28;20054;-74
2023/07/17 04:31:39;;;;;;;0.30;0.30;;;;;;;18.19;79.61;99724.81;4970819;28;20051;-74
2023/07/17 04:34:07;;;;;;;0.30;0.30;;;;;;;18.37;78.33;99725.56;4985877;28;20114;-73
2023/07/17 04:36:33;;;;;;;0.30;0.30;;;;;;;18.50;77.85;99724.56;4973556;28;20047;-74
2023/07/17 04:39:00;;;;;;;0.30;0.30;;;;;;;18.58;77.00;99724.88;4977162;28;20051;-73
2023/07/17 04:41:26;;;;;;;0.30;0.30;;;;;;;18.69;76.18;99724.19;4974943;28;20050;-74
2023/07/17 04:43:53;;;;;;;0.30;0.30;;;;;;;18.71;75.42;99721.88;4976548;28;21261;-73
2023/07/17 04:46:19;;;;;;;0.30;0.30;;;;;;;18.77;75.81;99724.47;4951320;28;20047;-73
2023/07/17 04:48:45;;;;;;;0.28;0.28;;;;;;;18.66;75.64;99727.63;4981524;28;20440;-74
2023/07/17 04:51:13;;;;;;;0.30;0.30;;;;;;;18.55;75.34;99726.34;4941813;28;20046;-75
2023/07/17 04:53:40;;;;;;;0.30;0.30;;;;;;;18.70;75.16;99734.09;4985331;28;20148;-73
2023/07/17 04:56:07;;;;;;;0.45;0.30;;;;;;;18.80;74.41;99740.41;4970322;28;20046;-73
2023/07/17 04:58:33;;;;;;;0.20;0.20;;;;;;;18.91;73.52;99738.91;4962600;28;20074;-73
2023/07/17 05:01:03;;;;;;;0.30;0.30;;;;;;;18.99;72.60;99742.81;4976908;28;20401;-74
2023/07/17 05:03:33;;;;;;;0.30;0.30;;;;;;;19.06;72.76;99733.97;4974437;28;20058;-74
2023/07/17 05:06:00;;;;;;;0.30;0.30;;;;;;;19.16;72.09;99736.38;4974466;28;20588;-74
2023/07/17 05:08:28;;;;;;;0.30;0.30;;;;;;;19.21;71.50;99727.06;4964064;28;20039;-73
2023/07/17 05:10:55;;;;;;;0.20;0.20;;;;;;;19.32;71.95;99728.28;4960953;28;20133;-74
2023/07/17 05:13:23;;;;;;;0.30;0.30;;;;;;;19.36;71.12;99726.47;4964283;28;20490;-73
2023/07/17 05:15:52;;;;;;;0.30;0.30;;;;;;;19.35;70.83;99722.06;4977250;28;20042;-74
2023/07/17 05:18:19;;;;;;;0.30;0.30;;;;;;;19.38;70.31;99724.19;4979691;28;20517;-74
2023/07/17 05:20:48;;;;;;;0.20;0.20;;;;;;;19.44;69.91;99718.44;4986219;28;20113;-74
2023/07/17 05:23:14;;;;;;;0.30;0.30;;;;;;;19.50;69.16;99712.34;4968994;28;20427;-73
2023/07/17 05:25:52;;;;;;;0.22;0.22;;;;;;;19.58;68.63;99718.97;4970849;28;20136;-73
2023/07/17 05:28:19;;;;;;;0.30;0.30;;;;;;;19.62;67.87;99719.91;4957600;28;20046;-73
2023/07/17 05:30:45;;;;;;;0.30;0.30;;;;;;;19.64;67.54;99725.13;4984421;28;20055;-73
2023/07/17 05:33:12;;;;;;;0.22;0.22;;;;;;;19.73;66.95;99719.53;4994659;28;20647;-74
2023/07/17 05:35:39;;;;;;;0.30;0.30;;;;;;;19.83;66.17;99727.44;4978331;28;20088;-74
2023/07/17 05:38:05;;;;;;;0.30;0.30;;;;;;;19.93;66.01;99732.59;4991938;28;20506;-74
2023/07/17 05:40:35;;;;;;;0.30;0.30;;;;;;;20.00;65.58;99726.50;4966896;28;20054;-74
2023/07/17 05:43:02;;;;;;;0.30;0.30;;;;;;;20.01;65.03;99725.34;4963582;28;20046;-73
2023/07/17 05:45:28;;;;;;;0.30;0.30;;;;;;;20.09;64.10;99720.84;4982174;28;20053;-73
2023/07/17 05:47:55;;;;;;;0.30;0.30;;;;;;;20.12;62.61;99722.94;4979325;28;20097;-73
2023/07/17 05:50:21;;;;;;;0.20;0.20;;;;;;;20.16;63.94;99726.69;4977946;28;20622;-74
2023/07/17 05:52:47;;;;;;;0.30;0.30;;;;;;;20.19;64.50;99723.22;4975881;28;20141;-73
2023/07/17 05:55:13;;;;;;;0.30;0.30;;;;;;;20.16;65.13;99715.56;4993982;28;20125;-73
2023/07/17 05:57:41;;;;;;;0.30;0.30;;;;;;;20.11;65.77;99724.91;4987873;28;20046;-74
2023/07/17 06:00:14;;;;;;;0.30;0.30;;;;;;;20.14;66.05;99728.97;4964359;28;20054;-74
2023/07/17 06:02:41;;;;;;;0.30;0.30;;;;;;;20.18;65.88;99735.47;4983370;28;20054;-74
2023/07/17 06:05:08;;;;;;;0.30;0.30;;;;;;;20.21;65.54;99732.00;4978536;28;20073;-74
2023/07/17 06:07:34;;;;;;;0.30;0.30;;;;;;;20.30;65.06;99734.69;4979181;28;20042;-74
2023/07/17 06:10:00;;;;;;;0.30;0.30;;;;;;;20.42;63.90;99735.88;4985843;28;20046;-74
2023/07/17 06:12:26;;;;;;;0.30;0.30;;;;;;;20.51;64.36;99726.31;4981707;28;20541;-74
2023/07/17 06:14:52;;;;;;;0.30;0.30;;;;;;;20.73;64.09;99729.00;4978058;28;20073;-75
2023/07/17 06:17:22;;;;;;;0.30;0.30;;;;;;;20.91;63.21;99727.66;4981198;28;20046;-74
2023/07/17 06:19:48;;;;;;;0.30;0.30;;;;;;;21.05;62.30;99729.28;4972178;28;20051;-73
2023/07/17 06:22:15;;;;;;;0.30;0.30;;;;;;;21.14;61.29;99723.59;4979891;28;20051;-74
2023/07/17 06:24:42;;;;;;;0.30;0.30;;;;;;;21.30;60.81;99718.13;4975441;28;20114;-74
2023/07/17 06:27:08;;;;;;;0.30;0.30;;;;;;;21.43;59.54;99716.16;4979770;28;20053;-75
2023/07/17 06:29:34;;;;;;;0.30;0.30;;;;;;;21.66;59.49;99722.81;4977513;28;20053;-73
2023/07/17 06:32:01;;;;;;;0.30;0.30;;;;;;;21.92;58.07;99715.19;4979173;28;20530;-74
2023/07/17 06:34:28;;;;;;;0.30;0.30;;;;;;;22.15;56.57;99717.44;4985148;28;20177;-73
2023/07/17 06:36:54;;;;;;;0.30;0.30;;;;;;;22.26;55.58;99710.19;4963689;28;20406;-73
2023/07/17 06:39:21;;;;;;;0.38;0.38;;;;;;;22.36;55.38;99706.88;4979735;28;20061;-74
2023/07/17 06:41:47;;;;;;;0.30;0.30;;;;;;;22.47;54.25;99706.34;4976468;28;20042;-74
2023/07/17 06:44:16;;;;;;;0.30;0.30;;;;;;;22.70;54.42;99717.72;4967758;28;20482;-73
2023/07/17 06:46:42;;;;;;;0.30;0.30;;;;;;;22.92;52.48;99718.22;4979138;28;20137;-74
2023/07/17 06:49:08;;;;;;;0.40;0.40;;;;;;;22.93;52.18;99708.69;4988102;28;20054;-74
2023/07/17 06:51:36;;;;;;;0.30;0.30;;;;;;;22.82;52.35;99713.22;4972726;28;20062;-76
2023/07/17 06:54:03;;;;;;;0.30;0.30;;;;;;;22.75;52.91;99708.28;4996483;28;20464;-74
2023/07/17 06:56:29;;;;;;;0.30;0.30;;;;;;;22.89;51.90;99699.44;4978105;28;20050;-74
2023/07/17 06:58:55;;;;;;;0.40;0.40;;;;;;;23.09;51.57;99701.13;4997688;28;20046;-74
2023/07/17 07:01:21;;;;;;;0.38;0.38;;;;;;;23.26;50.34;99701.09;4981821;28;20662;-74
2023/07/17 07:03:48;;;;;;;0.30;0.30;;;;;;;23.36;50.15;99695.78;4957138;28;20047;-73
2023/07/17 07:06:14;;;;;;;0.30;0.30;;;;;;;23.55;49.02;99685.03;4970222;28;20308;-74
2023/07/17 07:08:42;;;;;;;0.37;0.37;;;;;;;23.87;48.82;99696.84;4981345;28;20047;-73
2023/07/17 07:11:10;;;;;;;0.30;0.30;;;;;;;24.02;48.22;99697.97;4980276;28;20054;-73
2023/07/17 07:13:37;;;;;;;0.40;0.40;;;;;;;24.05;47.50;99697.22;4982446;28;20051;-73
2023/07/17 07:16:03;;;;;;;0.30;0.30;;;;;;;24.13;46.72;99697.38;4994765;28;20043;-73
2023/07/17 07:18:30;;;;;;;0.40;0.40;;;;;;;24.31;46.16;99694.91;4997713;28;20428;-73
2023/07/17 07:20:56;;;;;;;0.30;0.30;;;;;;;24.53;46.57;99704.47;4971030;28;20054;-73
2023/07/17 07:23:22;;;;;;;0.40;0.40;;;;;;;24.83;45.70;99689.84;4996297;28;20063;-74
2023/07/17 07:25:50;;;;;;;0.30;0.30;;;;;;;25.08;44.39;99688.59;4966281;28;20058;-73
2023/07/17 07:28:16;;;;;;;0.30;0.30;;;;;;;25.20;44.56;99702.38;4978990;28;20526;-74
2023/07/17 07:30:43;;;;;;;0.30;0.30;;;;;;;25.36;43.59;99688.19;4982495;28;20050;-73
2023/07/17 07:33:09;;;;;;;0.40;0.40;;;;;;;25.37;43.19;99692.63;4984363;28;20080;-74
2023/07/17 07:35:35;;;;;;;0.40;0.40;;;;;;;25.43;42.35;99693.91;4976882;28;20038;-74
2023/07/17 07:38:02;;;;;;;0.40;0.40;;;;;;;25.51;41.83;99694.84;4983925;28;20050;-73
2023/07/17 07:40:29;;;;;;;0.40;0.40;;;;;;;25.77;40.85;99693.19;4986824;28;20085;-74
2023/07/17 07:42:59;;;;;;;0.40;0.40;;;;;;;25.88;41.08;99685.69;4959669;28;20125;-72
2023/07/17 07:45:25;;;;;;;0.40;0.40;;;;;;;26.21;40.59;99691.69;4986955;28;20276;-74
2023/07/17 07:47:52;;;;;;;0.40;0.40;;;;;;;26.56;38.96;99690.41;4975931;28;20061;-73
2023/07/17 07:50:19;;;;;;;0.40;0.40;;;;;;;26.71;38.95;99691.34;4987115;28;20301;-73
2023/07/17 07:52:45;;;;;;;0.30;0.30;;;;;;;26.91;38.19;99691.13;4984900;28;20058;-74
2023/07/17 07:55:12;;;;;;;0.57;0.40;;;;;;;27.18;38.39;99685.31;4978955;28;20065;-73
2023/07/17 07:57:38;;;;;;;0.40;0.40;;;;;;;27.32;37.55;99688.19;4984896;28;20514;-74
2023/07/17 08:00:07;;;;;;;0.30;0.30;;;;;;;27.34;37.53;99684.97;4979704;28;20825;-73
2023/07/17 08:02:40;;;;;;;0.40;0.40;;;;;;;27.40;37.41;99688.22;4996667;28;20034;-74
2023/07/17 08:05:07;;;;;;;0.40;0.40;;;;;;;27.46;36.82;99683.81;4970252;28;20098;-73
2023/07/17 08:07:33;;;;;;;0.50;0.50;;;;;;;27.34;37.29;99675.75;4978428;28;20518;-73
2023/07/17 08:10:00;;;;;;;0.50;0.50;;;;;;;27.46;36.85;99669.78;4979453;28;20131;-73
2023/07/17 08:12:26;;;;;;;0.50;0.50;;;;;;;27.70;36.87;99673.94;4980115;28;20058;-74
2023/07/17 08:14:53;;;;;;;0.50;0.50;;;;;;;28.06;36.05;99664.03;4977902;28;20494;-74
2023/07/17 08:17:21;;;;;;;0.50;0.50;;;;;;;28.23;36.36;99668.91;4975850;28;20046;-73
2023/07/17 08:19:47;;;;;;;0.40;0.40;;;;;;;28.55;35.55;99667.31;4981106;28;20051;-72
2023/07/17 08:22:13;;;;;;;0.50;0.50;;;;;;;28.93;34.91;99658.47;4967519;28;20047;-73
2023/07/17 08:24:40;;;;;;;0.40;0.40;;;;;;;29.38;33.86;99658.75;4978137;28;20054;-73
2023/07/17 08:27:06;;;;;;;0.50;0.50;;;;;;;29.75;33.78;99653.03;4974089;28;20585;-74
2023/07/17 08:29:32;;;;;;;0.50;0.50;;;;;;;29.79;33.31;99648.16;4975975;28;20043;-73
2023/07/17 08:31:59;;;;;;;0.50;0.50;;;;;;;30.16;32.17;99652.38;4977054;28;20046;-73
2023/07/17 08:34:26;;;;;;;0.50;0.50;;;;;;;30.13;32.03;99650.41;4982842;28;20050;-73
2023/07/17 08:36:53;;;;;;;0.50;0.50;;;;;;;30.21;32.30;99643.50;4978956;28;20343;-72
2023/07/17 08:39:19;;;;;;;0.50;0.50;;;;;;;30.50;32.38;99631.97;4974043;28;20061;-73
2023/07/17 08:41:47;;;;;;;0.50;0.50;;;;;;;30.86;31.21;99638.56;4983971;28;20304;-73
2023/07/17 08:44:18;;;;;;;0.55;0.55;;;;;;;30.99;30.55;99634.00;4972539;28;20078;-73
2023/07/17 08:46:47;;;;;;;0.60;0.60;;;;;;;30.77;31.19;99634.19;4976746;28;20054;-72
2023/07/17 08:49:16;;;;;;;0.50;0.50;;;;;;;30.88;30.67;99631.25;4967981;28;20168;-73
2023/07/17 08:51:46;;;;;;;0.50;0.50;;;;;;;31.06;30.41;99628.25;4991024;28;20120;-73
2023/07/17 08:54:15;;;;;;;0.57;0.57;;;;;;;30.92;30.21;99626.41;4968750;28;20169;-73
2023/07/17 08:56:43;;;;;;;0.50;0.50;;;;;;;31.04;29.76;99629.88;4980105;28;20065;-73
2023/07/17 08:59:10;;;;;;;0.60;0.60;;;;;;;31.15;29.44;99622.09;4987604;28;20093;-73
2023/07/17 09:01:37;;;;;;;;;;;;;;;31.40;29.22;99635.16;4966863;28;20061;-73
2023/07/17 09:04:03;;;;;;;0.60;0.60;;;;;;;31.59;29.22;99630.88;4988261;28;19929;-73
2023/07/17 09:06:30;;;;;;;0.60;0.60;;;;;;;31.58;28.67;99632.09;4989464;28;20058;-73
2023/07/17 09:08:58;;;;;;;0.60;0.60;;;;;;;31.20;29.57;99630.09;4988057;28;20050;-73
2023/07/17 09:11:24;;;;;;;0.60;0.60;;;;;;;30.57;29.99;99628.28;4986770;28;20149;-74
2023/07/17 09:13:51;;;;;;;0.60;0.60;;;;;;;30.48;30.39;99628.78;4989374;28;20116;-74
2023/07/17 09:16:19;;;;;;;0.60;0.60;;;;;;;30.97;28.88;99622.28;4987797;28;20077;-73
2023/07/17 09:18:46;;;;;;;0.60;0.60;;;;;;;31.20;28.55;99629.31;5003840;28;20562;-73
2023/07/17 09:21:13;;;;;;;0.60;0.60;;;;;;;31.09;28.55;99632.25;4989599;28;20054;-73
2023/07/17 09:23:43;;;;;;;0.70;0.70;;;;;;;31.07;28.66;99631.88;4981778;28;20095;-73
2023/07/17 09:26:13;;;;;;;0.70;0.70;;;;;;;31.37;28.74;99628.31;4974781;28;20129;-73
2023/07/17 09:28:48;;;;;;;0.60;0.60;;;;;;;31.88;28.21;99624.06;4989305;28;20057;-73
2023/07/17 09:31:15;;;;;;;0.70;0.70;;;;;;;32.61;27.23;99618.06;4982013;28;20519;-73
2023/07/17 09:33:41;;;;;;;;;;;;;;;32.50;27.68;99623.91;4982842;28;20051;-73
2023/07/17 09:36:09;;;;;;;;;;;;;;;32.36;27.08;99622.94;4984807;28;19926;-73
2023/07/17 09:38:35;;;;;;;0.70;0.70;;;;;;;31.54;27.56;99620.03;4988984;28;20313;-73
2023/07/17 09:41:18;;;;;;;0.70;0.70;;;;;;;30.70;28.78;99618.13;4991829;28;20081;-73
2023/07/17 09:43:51;;;;;;;0.60;0.60;;;;;;;30.32;29.20;99620.06;4980526;28;20051;-73
2023/07/17 09:46:18;;;;;;;0.60;0.60;;;;;;;30.16;29.91;99620.59;4984273;28;20046;-74
2023/07/17 09:48:45;;;;;;;0.70;0.70;;;;;;;30.22;28.61;99614.09;4987489;28;20594;-73
2023/07/17 09:51:13;;;;;;;0.63;0.63;;;;;;;30.36;28.20;99618.00;4971127;28;20048;-74
2023/07/17 09:53:40;;;;;;;0.60;0.60;;;;;;;30.31;28.46;99619.25;4987736;28;20057;-73
2023/07/17 09:56:11;;;;;;;0.60;0.60;;;;;;;30.80;28.10;99618.44;4989458;28;20053;-73
2023/07/17 09:58:41;;;;;;;0.60;0.60;;;;;;;31.38;27.59;99620.66;4980820;28;20518;-73
2023/07/17 10:01:08;;;;;;;0.60;0.60;;;;;;;31.54;27.62;99618.03;4980548;28;20050;-73
2023/07/17 10:03:35;;;;;;;0.63;0.63;;;;;;;31.81;27.38;99624.97;4998576;28;20050;-73
2023/07/17 10:06:02;;;;;;;0.60;0.60;;;;;;;31.70;27.83;99610.97;4988894;28;20038;-73
2023/07/17 10:08:29;;;;;;;0.60;0.60;;;;;;;32.20;27.11;99617.13;4979897;28;20073;-74
2023/07/17 10:10:55;;;;;;;;;;;;;;;33.01;26.60;99623.03;4985872;28;20514;-75
2023/07/17 10:13:21;;;;;;;0.60;0.60;;;;;;;33.38;25.69;99612.56;4998250;28;19930;-73
2023/07/17 10:15:49;;;;;;;0.60;0.60;;;;;;;33.52;25.22;99608.66;4983328;28;20576;-74
2023/07/17 10:18:15;;;;;;;0.63;0.63;;;;;;;33.71;25.24;99612.69;4970494;28;20109;-73
2023/07/17 10:20:52;;;;;;;0.60;0.60;;;;;;;33.63;24.70;99609.22;4987538;28;20105;-73
2023/07/17 10:23:23;;;;;;;0.60;0.60;;;;;;;33.84;24.86;99609.16;5003845;28;20057;-73
2023/07/17 10:25:50;;;;;;;0.60;0.60;;;;;;;34.45;24.09;99604.88;5001730;28;20064;-73
2023/07/17 10:28:29;;;;;;;0.68;0.68;;;;;;;34.31;23.86;99603.19;4983530;28;20050;-73
2023/07/17 10:31:04;;;;;;;0.68;0.68;;;;;;;34.53;23.39;99596.22;4969970;28;20046;-73
2023/07/17 10:33:36;;;;;;;0.60;0.60;;;;;;;34.60;22.73;99596.81;4984186;28;20050;-72
2023/07/17 10:36:03;;;;;;;0.70;0.70;;;;;;;34.25;23.51;99592.84;4988508;28;20144;-72
2023/07/17 10:38:31;;;;;;;0.70;0.70;;;;;;;34.95;22.94;99589.81;4986901;28;20045;-73
2023/07/17 10:41:05;;;;;;;0.75;0.75;;;;;;;35.42;22.42;99580.75;4980716;28;20063;-71
2023/07/17 10:43:33;;;;;;;0.80;0.80;;;;;;;35.26;22.32;99583.69;4964969;28;20577;-73
2023/07/17 10:46:10;;;;;;;0.80;0.80;;;;;;;35.11;22.20;99578.41;4981104;28;20513;-73
2023/07/17 10:48:37;;;;;;;0.90;0.90;;;;;;;34.48;22.94;99581.28;4985721;28;20518;-72
2023/07/17 10:51:03;;;;;;;0.90;0.90;;;;;;;34.11;23.62;99574.16;4985520;28;20514;-72
2023/07/17 10:53:29;;;;;;;;;;;;;;;34.99;23.03;99579.16;4967942;28;20588;-72
2023/07/17 10:55:57;;;;;;;1.00;1.00;;;;;;;35.09;22.07;99575.22;4978812;28;19925;-72
2023/07/17 10:58:23;;;;;;;1.10;1.10;;;;;;;35.39;21.64;99566.66;4983923;28;20058;-74
2023/07/17 11:00:50;;;;;;;;;;;;;;;34.93;22.37;99567.56;4999482;28;20060;-73
2023/07/17 11:03:20;;;;;;;1.10;1.10;;;;;;;35.96;21.35;99574.66;4983978;28;19926;-73
2023/07/17 11:05:46;;;;;;;1.10;1.10;;;;;;;36.60;20.37;99560.34;4982596;28;20105;-73
2023/07/17 11:08:13;;;;;;;1.10;1.10;;;;;;;36.77;19.36;99563.00;5001365;28;20049;-71
2023/07/17 11:10:41;;;;;;;1.15;1.15;;;;;;;36.71;20.00;99565.66;4980152;28;20074;-73
2023/07/17 11:13:08;;;;;;;1.10;1.10;;;;;;;37.01;18.96;99562.56;4983874;28;20046;-72
2023/07/17 11:15:35;;;;;;;1.10;1.10;;;;;;;37.26;19.40;99564.47;4985909;28;20061;-71
2023/07/17 11:18:02;;;;;;;1.10;1.10;;;;;;;37.68;18.60;99563.28;4987346;28;20117;-72
2023/07/17 11:20:30;;;;;;;1.30;1.20;;;;;;;37.86;18.65;99556.84;4986401;28;20102;-72
2023/07/17 11:22:57;;;;;;;1.30;1.20;;;;;;;38.36;18.52;99547.47;4974092;28;20048;-72
2023/07/17 11:25:25;;;;;;;1.40;1.30;;;;;;;39.03;18.01;99547.00;4969150;28;20511;-71
2023/07/17 11:27:53;;;;;;;1.35;1.25;;;;;;;40.15;16.91;99542.91;4647791;28;10000403;-71
2023/07/17 11:30:21;;;;;;;1.30;1.20;;;;;;;40.66;16.98;99546.84;4950017;28;20042;-71
2023/07/17 11:32:59;;;;;;;0.90;0.90;;;;;;;39.01;18.25;99549.53;4981582;28;20438;-72
2023/07/17 11:35:42;;;;;;;0.50;0.50;;;;;;;36.37;21.24;99549.34;4962309;28;20078;-71